createdAt,value
2022-08-13T00:00:45.225Z,75.22
2022-08-13T00:03:57.905Z,76.14
2022-08-13T00:06:03.693Z,75.91
2022-08-13T00:08:30.546Z,76.52
2022-08-13T00:10:58.919Z,77.57
2022-08-13T00:13:43.311Z,78.42
2022-08-13T00:16:12.394Z,78.13
2022-08-13T00:18:41.348Z,78.25
2022-08-13T00:21:09.454Z,78.21
2022-08-13T00:23:54.328Z,78.56
2022-08-13T00:26:30.522Z,78.15
2022-08-13T00:29:01.354Z,75.93
2022-08-13T00:31:29.717Z,76.81
2022-08-13T00:33:56.215Z,75.78
2022-08-13T00:36:29.773Z,75.32
2022-08-13T00:39:08.084Z,73.90
2022-08-13T00:41:58.267Z,75.59
2022-08-13T00:44:26.070Z,77.19
2022-08-13T00:47:15.201Z,78.35
2022-08-13T00:49:49.977Z,77.96
2022-08-13T00:52:34.298Z,77.61
2022-08-13T00:55:04.395Z,77.88
2022-08-13T00:57:33.824Z,77.99
2022-08-13T01:00:03.945Z,77.07
2022-08-13T01:02:32.589Z,76.73
2022-08-13T01:05:01.991Z,77.74
2022-08-13T01:07:47.532Z,76.80
2022-08-13T01:10:21.282Z,77.45
2022-08-13T01:12:51.866Z,77.32
2022-08-13T01:15:19.723Z,77.74
2022-08-13T01:17:50.415Z,78.14
2022-08-13T01:20:33.037Z,78.66
2022-08-13T01:23:04.552Z,78.55
2022-08-13T01:25:53.104Z,78.04
2022-08-13T01:28:23.158Z,78.37
2022-08-13T01:30:53.086Z,78.24
2022-08-13T01:33:27.945Z,78.50
2022-08-13T01:36:13.735Z,79.04
2022-08-13T01:38:44.124Z,80.45
2022-08-13T01:41:11.079Z,80.92
2022-08-13T01:43:44.014Z,79.90
2022-08-13T01:46:17.946Z,80.22
2022-08-13T01:49:03.268Z,81.08
2022-08-13T01:51:43.134Z,79.96
2022-08-13T01:54:30.137Z,80.27
2022-08-13T01:57:00.911Z,81.18
2022-08-13T02:00:03.005Z,80.39
2022-08-13T02:02:31.474Z,81.04
2022-08-13T02:05:04.535Z,80.25
2022-08-13T02:08:01.075Z,80.68
2022-08-13T02:10:26.319Z,80.60
2022-08-13T02:12:53.163Z,81.09
2022-08-13T02:15:30.439Z,80.31
2022-08-13T02:18:09.500Z,80.74
2022-08-13T02:20:41.359Z,79.66
2022-08-13T02:23:08.994Z,80.05
2022-08-13T02:25:38.907Z,78.29
2022-08-13T02:28:13.067Z,78.70
2022-08-13T02:30:54.816Z,79.26
2022-08-13T02:33:22.029Z,79.74
2022-08-13T02:35:52.669Z,79.98
2022-08-13T02:38:25.336Z,79.95
2022-08-13T02:41:16.705Z,80.52
2022-08-13T02:43:54.843Z,80.49
2022-08-13T02:46:27.570Z,80.88
2022-08-13T02:48:54.716Z,80.71
2022-08-13T02:51:58.265Z,78.76
2022-08-13T02:54:12.714Z,77.81
2022-08-13T02:56:40.122Z,78.86
2022-08-13T02:59:42.720Z,79.61
2022-08-13T03:02:05.382Z,79.98
2022-08-13T03:04:33.689Z,80.86
2022-08-13T03:07:08.000Z,81.04
2022-08-13T03:09:45.900Z,79.28
2022-08-13T03:12:15.340Z,79.73
2022-08-13T03:14:42.886Z,79.01
2022-08-13T03:17:22.480Z,78.58
2022-08-13T03:19:51.125Z,79.58
2022-08-13T03:22:17.988Z,79.55
2022-08-13T03:24:46.519Z,79.53
2022-08-13T03:27:13.135Z,78.64
2022-08-13T03:30:03.824Z,78.83
2022-08-13T03:32:31.046Z,79.54
2022-08-13T03:34:59.779Z,79.53
2022-08-13T03:37:38.484Z,79.63
2022-08-13T03:40:06.309Z,79.13
2022-08-13T03:42:51.525Z,78.15
2022-08-13T03:45:23.329Z,77.38
2022-08-13T03:47:50.559Z,78.56
2022-08-13T03:50:30.353Z,79.07
2022-08-13T03:53:03.576Z,79.81
2022-08-13T03:55:31.663Z,78.95
2022-08-13T03:58:12.754Z,79.47
2022-08-13T04:00:43.503Z,79.92
2022-08-13T04:05:56.535Z,79.96
2022-08-13T04:08:25.686Z,77.93
2022-08-13T04:10:53.952Z,78.24
2022-08-13T04:14:05.836Z,78.30
2022-08-13T04:16:12.190Z,78.19
2022-08-13T04:18:40.678Z,78.56
2022-08-13T04:21:17.552Z,78.60
2022-08-13T04:23:55.454Z,78.36
2022-08-13T04:26:30.930Z,79.40
2022-08-13T04:29:09.330Z,79.28
2022-08-13T04:31:47.343Z,77.11
2022-08-13T04:34:32.506Z,77.51
2022-08-13T04:37:04.559Z,77.31
2022-08-13T04:40:06.661Z,77.75
2022-08-13T04:42:32.050Z,77.70
2022-08-13T04:45:04.096Z,77.40
2022-08-13T04:47:31.335Z,77.04
2022-08-13T04:49:58.434Z,77.01
2022-08-13T04:52:30.166Z,76.84
2022-08-13T04:55:03.201Z,77.05
2022-08-13T04:57:54.987Z,77.09
2022-08-13T05:00:18.469Z,76.60
2022-08-13T05:02:45.217Z,76.12
2022-08-13T05:05:17.366Z,75.98
2022-08-13T05:07:51.961Z,75.90
2022-08-13T05:10:30.967Z,75.46
2022-08-13T05:13:01.211Z,75.19
2022-08-13T05:15:41.398Z,75.27
2022-08-13T05:18:09.997Z,75.03
2022-08-13T05:20:51.575Z,74.97
2022-08-13T05:26:06.917Z,74.95
2022-08-13T05:26:29.945Z,74.97
2022-08-13T05:28:54.083Z,73.45
2022-08-13T05:31:21.637Z,74.29
2022-08-13T05:34:03.827Z,74.56
2022-08-13T05:38:13.575Z,73.27
2022-08-13T05:39:18.959Z,73.96
2022-08-13T05:42:07.025Z,72.55
2022-08-13T05:44:37.059Z,71.58
2022-08-13T05:47:06.107Z,71.97
2022-08-13T05:49:42.554Z,71.49
2022-08-13T05:52:35.054Z,70.97
2022-08-13T05:56:12.790Z,70.79
2022-08-13T05:58:01.914Z,71.53
2022-08-13T06:00:47.632Z,69.76
2022-08-13T06:04:15.885Z,69.55
2022-08-13T06:06:24.163Z,69.08
2022-08-13T06:08:52.390Z,69.62
2022-08-13T06:12:25.813Z,69.33
2022-08-13T06:14:07.308Z,68.49
2022-08-13T06:16:53.596Z,66.36
2022-08-13T06:19:27.346Z,66.60
2022-08-13T06:22:01.915Z,66.36
2022-08-13T06:24:31.161Z,65.11
2022-08-13T06:27:05.872Z,65.79
2022-08-13T06:29:46.937Z,63.26
2022-08-13T06:32:36.199Z,64.20
2022-08-13T06:35:09.579Z,64.22
2022-08-13T06:37:50.402Z,65.15
2022-08-13T06:40:31.825Z,64.49
2022-08-13T06:43:06.541Z,63.34
2022-08-13T06:45:34.427Z,61.10
2022-08-13T06:48:02.377Z,61.58
2022-08-13T06:50:44.935Z,61.39
2022-08-13T06:54:25.315Z,60.46
2022-08-13T06:56:20.104Z,60.39
2022-08-13T06:58:57.589Z,59.24
2022-08-13T07:01:26.362Z,60.36
2022-08-13T07:04:00.395Z,59.58
2022-08-13T07:06:28.852Z,59.08
2022-08-13T07:08:58.126Z,57.16
2022-08-13T07:11:37.969Z,56.54
2022-08-13T07:14:09.326Z,55.58
2022-08-13T07:16:40.447Z,57.46
2022-08-13T07:19:07.084Z,56.80
2022-08-13T07:21:42.099Z,54.63
2022-08-13T07:24:37.277Z,55.49
2022-08-13T07:27:02.817Z,55.97
2022-08-13T07:29:32.390Z,53.99
2022-08-13T07:32:20.043Z,54.04
2022-08-13T07:34:47.531Z,53.00
2022-08-13T07:37:22.963Z,53.00
2022-08-13T07:39:51.663Z,53.83
2022-08-13T07:42:29.759Z,54.49
2022-08-13T07:46:26.115Z,53.23
2022-08-13T07:48:27.351Z,54.63
2022-08-13T07:50:35.031Z,51.21
2022-08-13T07:53:01.528Z,50.80
2022-08-13T07:56:26.172Z,51.67
2022-08-13T07:58:15.221Z,51.61
2022-08-13T08:00:47.701Z,51.63
2022-08-13T08:03:14.849Z,50.33
2022-08-13T08:05:45.047Z,49.82
2022-08-13T08:08:19.200Z,49.24
2022-08-13T08:10:55.653Z,48.50
2022-08-13T08:13:25.614Z,48.39
2022-08-13T08:16:00.751Z,47.37
2022-08-13T08:18:35.178Z,46.30
2022-08-13T08:21:46.778Z,47.29
2022-08-13T08:24:02.347Z,46.87
2022-08-13T08:26:31.468Z,46.70
2022-08-13T08:29:00.907Z,46.50
2022-08-13T08:32:01.212Z,46.39
2022-08-13T08:34:18.230Z,46.38
2022-08-13T08:36:47.150Z,46.02
2022-08-13T08:39:38.679Z,45.22
2022-08-13T08:42:34.734Z,44.94
2022-08-13T08:45:04.491Z,44.81
2022-08-13T08:47:47.637Z,44.05
2022-08-13T08:50:27.527Z,43.97
2022-08-13T08:53:21.271Z,44.67
2022-08-13T08:56:07.250Z,43.43
2022-08-13T08:58:39.071Z,43.94
2022-08-13T09:01:09.124Z,44.43
2022-08-13T09:03:50.007Z,43.32
2022-08-13T09:06:53.879Z,42.53
2022-08-13T09:09:16.299Z,42.96
2022-08-13T09:11:51.611Z,42.57
2022-08-13T09:14:21.809Z,42.78
2022-08-13T09:16:51.005Z,42.96
2022-08-13T09:19:28.114Z,41.64
2022-08-13T09:22:05.514Z,42.44
2022-08-13T09:24:32.338Z,42.31
2022-08-13T09:27:00.654Z,40.67
2022-08-13T09:29:27.624Z,40.52
2022-08-13T09:32:02.093Z,40.91
2022-08-13T09:34:31.390Z,40.48
2022-08-13T09:36:58.904Z,40.29
2022-08-13T09:39:40.943Z,40.85
2022-08-13T09:42:15.074Z,40.77
2022-08-13T09:44:54.545Z,39.56
2022-08-13T09:48:34.995Z,39.65
2022-08-13T09:50:10.288Z,39.25
2022-08-13T09:52:38.118Z,39.37
2022-08-13T09:55:06.699Z,39.75
2022-08-13T09:58:00.916Z,39.30
2022-08-13T10:00:30.248Z,39.04
2022-08-13T10:03:04.834Z,39.86
2022-08-13T10:05:37.306Z,39.94
2022-08-13T10:08:07.164Z,38.74
2022-08-13T10:10:34.677Z,38.57
2022-08-13T10:13:03.747Z,39.60
2022-08-13T10:15:33.365Z,38.50
2022-08-13T10:18:03.683Z,38.08
2022-08-13T10:20:39.564Z,39.35
2022-08-13T10:23:11.823Z,38.16
2022-08-13T10:25:50.273Z,38.23
2022-08-13T10:28:32.617Z,38.49
2022-08-13T10:31:47.263Z,38.43
2022-08-13T10:33:48.574Z,37.64
2022-08-13T10:36:18.548Z,39.35
2022-08-13T10:38:53.309Z,38.21
2022-08-13T10:41:21.099Z,37.92
2022-08-13T10:43:56.721Z,39.58
2022-08-13T10:46:29.512Z,37.98
2022-08-13T10:48:58.621Z,37.21
2022-08-13T10:51:28.036Z,37.61
2022-08-13T10:54:00.486Z,38.02
2022-08-13T10:56:33.733Z,36.81
2022-08-13T10:59:04.199Z,36.47
2022-08-13T11:01:31.601Z,36.81
2022-08-13T11:04:05.643Z,36.56
2022-08-13T11:06:40.407Z,37.37
2022-08-13T11:09:26.169Z,37.62
2022-08-13T11:11:59.766Z,38.54
2022-08-13T11:14:38.310Z,39.18
2022-08-13T11:17:09.720Z,40.44
2022-08-13T11:19:48.596Z,37.38
2022-08-13T11:25:18.693Z,38.20
2022-08-13T11:27:53.573Z,38.47
2022-08-13T11:30:34.464Z,38.89
2022-08-13T11:33:05.745Z,39.09
2022-08-13T11:35:34.333Z,37.68
2022-08-13T11:38:10.938Z,37.97
2022-08-13T11:40:39.249Z,36.91
2022-08-13T11:43:13.097Z,36.40
2022-08-13T11:45:49.231Z,37.30
2022-08-13T11:48:19.631Z,37.64
2022-08-13T11:50:58.854Z,37.65
2022-08-13T11:53:26.413Z,38.45
2022-08-13T11:56:00.733Z,38.58
2022-08-13T11:58:32.447Z,38.48
2022-08-13T12:01:18.191Z,37.43
2022-08-13T12:06:42.550Z,37.87
2022-08-13T12:09:23.603Z,36.06
2022-08-13T12:12:10.243Z,37.31
2022-08-13T12:14:39.375Z,38.13
2022-08-13T12:17:05.947Z,37.68
2022-08-13T12:19:33.757Z,38.20
2022-08-13T12:22:01.966Z,35.71
2022-08-13T12:24:30.156Z,37.72
2022-08-13T12:27:03.341Z,36.43
2022-08-13T12:29:45.665Z,37.92
2022-08-13T12:32:18.698Z,37.03
2022-08-13T12:34:53.722Z,37.82
2022-08-13T12:37:26.386Z,38.37
2022-08-13T12:40:06.219Z,37.77
2022-08-13T12:42:34.529Z,39.21
2022-08-13T12:45:10.557Z,40.20
2022-08-13T12:47:49.263Z,40.01
2022-08-13T12:50:21.941Z,40.70
2022-08-13T12:52:50.006Z,40.35
2022-08-13T12:55:24.885Z,41.25
2022-08-13T12:58:13.615Z,40.60
2022-08-13T13:00:45.087Z,41.34
2022-08-13T13:03:13.076Z,42.75
2022-08-13T13:05:48.627Z,42.31
2022-08-13T13:08:32.696Z,42.74
2022-08-13T13:11:11.150Z,42.47
2022-08-13T13:14:01.495Z,43.26
2022-08-13T13:16:37.753Z,42.56
2022-08-13T13:19:15.419Z,42.90
2022-08-13T13:21:47.052Z,42.18
2022-08-13T13:24:18.479Z,42.07
2022-08-13T13:26:56.973Z,42.74
2022-08-13T13:29:44.128Z,41.83
2022-08-13T13:32:40.561Z,41.35
2022-08-13T13:35:37.958Z,41.66
2022-08-13T13:38:05.553Z,42.25
2022-08-13T13:40:48.459Z,41.70
2022-08-13T13:43:23.632Z,40.49
2022-08-13T13:46:00.502Z,40.91
2022-08-13T13:48:34.749Z,41.92
2022-08-13T13:51:05.372Z,42.72
2022-08-13T13:54:17.376Z,43.66
2022-08-13T13:56:22.635Z,45.06
2022-08-13T13:58:59.751Z,45.78
2022-08-13T14:01:49.743Z,47.52
2022-08-13T14:04:21.330Z,47.35
2022-08-13T14:06:48.800Z,47.76
2022-08-13T14:09:24.508Z,49.51
2022-08-13T14:11:53.044Z,47.34
2022-08-13T14:14:20.578Z,47.84
2022-08-13T14:16:50.188Z,47.72
2022-08-13T14:19:53.685Z,48.69
2022-08-13T14:22:21.655Z,49.12
2022-08-13T14:24:50.441Z,48.66
2022-08-13T14:30:35.741Z,49.33
2022-08-13T14:33:06.656Z,48.33
2022-08-13T14:35:49.316Z,48.64
2022-08-13T14:38:28.598Z,49.57
2022-08-13T14:40:57.734Z,50.52
2022-08-13T14:43:38.094Z,50.44
2022-08-13T14:46:18.654Z,50.49
2022-08-13T14:48:45.271Z,50.72
2022-08-13T14:51:20.187Z,51.56
2022-08-13T14:54:00.684Z,50.32
2022-08-13T14:56:31.848Z,50.44
2022-08-13T14:58:59.429Z,50.26
2022-08-13T15:01:26.379Z,50.52
2022-08-13T15:03:53.514Z,50.03
2022-08-13T15:06:32.302Z,50.14
2022-08-13T15:09:09.686Z,50.02
2022-08-13T15:11:37.205Z,51.15
2022-08-13T15:14:11.988Z,52.43
2022-08-13T15:16:42.791Z,52.67
2022-08-13T15:19:18.165Z,53.06
2022-08-13T15:21:51.445Z,54.38
2022-08-13T15:24:35.956Z,54.32
2022-08-13T15:27:13.071Z,55.62
2022-08-13T15:29:50.752Z,55.23
2022-08-13T15:32:17.605Z,55.84
2022-08-13T15:34:55.360Z,56.77
2022-08-13T15:37:23.743Z,56.63
2022-08-13T15:39:51.945Z,57.70
2022-08-13T15:42:20.676Z,57.32
2022-08-13T15:44:50.941Z,57.14
2022-08-13T15:47:19.616Z,56.35
2022-08-13T15:49:54.511Z,56.29
2022-08-13T15:52:25.640Z,57.46
2022-08-13T15:54:57.969Z,57.58
2022-08-13T15:57:24.535Z,57.24
2022-08-13T15:59:53.552Z,57.06
2022-08-13T16:02:57.937Z,57.31
2022-08-13T16:05:16.342Z,57.60
2022-08-13T16:07:50.771Z,58.12
2022-08-13T16:10:22.237Z,58.98
2022-08-13T16:12:57.951Z,59.68
2022-08-13T16:15:38.248Z,60.75
2022-08-13T16:18:20.270Z,59.44
2022-08-13T16:20:49.991Z,59.60
2022-08-13T16:23:16.689Z,59.54
2022-08-13T16:25:55.206Z,59.72
2022-08-13T16:28:32.841Z,60.07
2022-08-13T16:31:03.209Z,60.13
2022-08-13T16:33:51.047Z,59.95
2022-08-13T16:36:23.076Z,60.07
2022-08-13T16:39:04.637Z,59.99
2022-08-13T16:41:35.855Z,59.56
2022-08-13T16:44:03.521Z,60.08
2022-08-13T16:46:50.634Z,58.43
2022-08-13T16:49:21.395Z,59.25
2022-08-13T16:51:54.337Z,59.79
2022-08-13T16:54:37.147Z,60.03
2022-08-13T16:57:08.394Z,60.61
2022-08-13T16:59:37.068Z,59.34
2022-08-13T17:02:09.139Z,59.99
2022-08-13T17:05:10.694Z,59.83
2022-08-13T17:08:00.675Z,59.54
2022-08-13T17:10:32.840Z,59.45
2022-08-13T17:13:00.531Z,60.00
2022-08-13T17:15:27.622Z,59.90
2022-08-13T17:17:56.332Z,58.50
2022-08-13T17:20:29.114Z,59.76
2022-08-13T17:22:59.023Z,59.42
2022-08-13T17:25:33.608Z,59.76
2022-08-13T17:28:00.793Z,59.63
2022-08-13T17:30:28.606Z,60.53
2022-08-13T17:32:57.547Z,60.99
2022-08-13T17:35:25.125Z,61.52
2022-08-13T17:37:58.977Z,62.47
2022-08-13T17:40:34.295Z,62.35
2022-08-13T17:44:02.461Z,62.96
2022-08-13T17:45:59.469Z,63.60
2022-08-13T17:48:38.851Z,63.02
2022-08-13T17:51:23.279Z,63.54
2022-08-13T17:53:53.410Z,64.69
2022-08-13T17:56:25.371Z,64.08
2022-08-13T17:58:53.503Z,64.66
2022-08-13T18:01:30.999Z,64.60
2022-08-13T18:04:32.805Z,64.70
2022-08-13T18:07:00.950Z,64.92
2022-08-13T18:09:47.485Z,65.61
2022-08-13T18:12:33.390Z,66.28
2022-08-13T18:15:02.457Z,66.91
2022-08-13T18:18:14.878Z,66.29
2022-08-13T18:20:26.292Z,66.82
2022-08-13T18:23:14.381Z,66.70
2022-08-13T18:25:42.550Z,66.27
2022-08-13T18:28:17.030Z,66.11
2022-08-13T18:30:58.241Z,66.53
2022-08-13T18:34:03.742Z,67.21
2022-08-13T18:36:14.018Z,66.71
2022-08-13T18:38:46.471Z,67.18
2022-08-13T18:41:19.615Z,67.68
2022-08-13T18:43:46.246Z,67.17
2022-08-13T18:46:26.978Z,67.20
2022-08-13T18:48:53.748Z,66.00
2022-08-13T18:51:40.077Z,67.81
2022-08-13T18:54:10.656Z,68.04
2022-08-13T18:56:59.373Z,69.61
2022-08-13T18:59:27.123Z,69.90
2022-08-13T19:01:57.443Z,69.19
2022-08-13T19:04:25.359Z,69.77
2022-08-13T19:09:25.596Z,69.22
2022-08-13T19:11:53.763Z,67.88
2022-08-13T19:14:23.478Z,68.88
2022-08-13T19:16:57.461Z,69.11
2022-08-13T19:19:54.784Z,69.09
2022-08-13T19:22:19.627Z,67.67
2022-08-13T19:24:49.122Z,69.10
2022-08-13T19:27:20.622Z,69.25
2022-08-13T19:30:01.212Z,69.56
2022-08-13T19:32:29.187Z,69.85
2022-08-13T19:34:56.739Z,70.29
2022-08-13T19:37:23.467Z,70.48
2022-08-13T19:39:59.213Z,69.23
2022-08-13T19:42:44.655Z,68.89
2022-08-13T19:45:19.524Z,69.41
2022-08-13T19:48:00.818Z,69.49
2022-08-13T19:50:35.075Z,69.68
2022-08-13T19:53:04.598Z,70.04
2022-08-13T19:55:54.360Z,70.48
2022-08-13T19:58:18.597Z,70.02
2022-08-13T20:00:46.716Z,69.81
2022-08-13T20:03:24.227Z,70.23
2022-08-13T20:05:53.526Z,69.61
2022-08-13T20:08:34.856Z,69.11
2022-08-13T20:11:04.755Z,69.28
2022-08-13T20:13:40.909Z,70.31
2022-08-13T20:16:07.957Z,70.83
2022-08-13T20:18:37.743Z,70.98
2022-08-13T20:21:04.340Z,71.20
2022-08-13T20:23:37.209Z,71.19
2022-08-13T20:26:16.999Z,70.78
2022-08-13T20:28:44.378Z,71.09
2022-08-13T20:31:15.526Z,70.71
2022-08-13T20:33:43.523Z,70.87
2022-08-13T20:36:13.260Z,71.22
2022-08-13T20:38:47.631Z,71.27
2022-08-13T20:41:15.660Z,71.75
2022-08-13T20:43:57.503Z,71.68
2022-08-13T20:46:28.142Z,71.93
2022-08-13T20:48:58.518Z,72.06
2022-08-13T20:51:29.767Z,72.43
2022-08-13T20:53:58.905Z,72.43
2022-08-13T20:56:41.406Z,72.67
2022-08-13T21:00:48.874Z,72.92
2022-08-13T21:02:02.863Z,73.04
2022-08-13T21:04:30.264Z,73.31
2022-08-13T21:06:59.489Z,73.25
2022-08-13T21:09:46.514Z,72.87
2022-08-13T21:12:18.574Z,73.19
2022-08-13T21:14:45.223Z,72.96
2022-08-13T21:17:14.329Z,73.23
2022-08-13T21:19:46.099Z,73.29
2022-08-13T21:22:31.809Z,72.80
2022-08-13T21:25:10.653Z,73.00
2022-08-13T21:28:36.808Z,73.09
2022-08-13T21:30:30.969Z,73.56
2022-08-13T21:33:02.654Z,73.52
2022-08-13T21:35:32.910Z,73.63
2022-08-13T21:38:03.018Z,73.99
2022-08-13T21:40:30.095Z,74.09
2022-08-13T21:42:58.871Z,73.05
2022-08-13T21:45:28.515Z,73.60
2022-08-13T21:47:57.027Z,72.71
2022-08-13T21:50:32.282Z,72.32
2022-08-13T21:53:01.414Z,72.02
2022-08-13T21:55:32.712Z,73.59
2022-08-13T21:58:01.132Z,73.90
2022-08-13T22:00:31.263Z,74.33
2022-08-13T22:03:02.475Z,73.88
2022-08-13T22:05:57.901Z,73.67
2022-08-13T22:08:21.106Z,74.08
2022-08-13T22:10:51.009Z,74.85
2022-08-13T22:13:23.111Z,74.74
2022-08-13T22:15:57.027Z,74.84
2022-08-13T22:18:28.494Z,74.57
2022-08-13T22:20:55.886Z,75.67
2022-08-13T22:23:22.374Z,75.79
2022-08-13T22:25:53.376Z,75.73
2022-08-13T22:28:39.463Z,75.60
2022-08-13T22:31:07.840Z,75.60
2022-08-13T22:33:38.921Z,75.58
2022-08-13T22:36:16.128Z,75.35
2022-08-13T22:38:53.312Z,76.14
2022-08-13T22:41:21.027Z,76.70
2022-08-13T22:43:49.512Z,77.08
2022-08-13T22:46:17.160Z,77.29
2022-08-13T22:48:45.106Z,77.06
2022-08-13T22:51:15.673Z,77.59
2022-08-13T22:53:45.150Z,77.86
2022-08-13T22:56:13.021Z,77.95
2022-08-13T22:58:41.331Z,78.13
2022-08-13T23:01:10.355Z,78.17
2022-08-13T23:03:37.943Z,77.67
2022-08-13T23:06:04.549Z,78.43
2022-08-13T23:08:51.644Z,78.63
2022-08-13T23:11:18.513Z,78.29
2022-08-13T23:13:48.176Z,79.13
2022-08-13T23:16:19.886Z,79.07
2022-08-13T23:18:51.145Z,78.85
2022-08-13T23:21:17.790Z,79.24
2022-08-13T23:23:45.391Z,80.00
2022-08-13T23:26:17.905Z,79.29
2022-08-13T23:28:45.851Z,79.59
2022-08-13T23:31:13.607Z,80.40
2022-08-13T23:33:40.436Z,80.33
2022-08-13T23:36:10.045Z,79.61
2022-08-13T23:38:38.002Z,79.77
2022-08-13T23:41:05.709Z,80.82
2022-08-13T23:43:33.993Z,80.73
2022-08-13T23:46:00.750Z,81.65
2022-08-13T23:48:50.147Z,81.83
2022-08-13T23:51:23.542Z,82.32
2022-08-13T23:53:58.096Z,82.56
2022-08-13T23:56:39.011Z,83.09
2022-08-13T23:59:17.735Z,82.95
